Flight Track Log - Related Links

Times and Time Zones

All times are in EDT time to prevent confusion due to time zone crossing. See the KAL1333 flight status page for this flight to view local times or setup timezone preferences in your user account.

Time Position Orientation Groundspeed Altitude Reporting Facility
EDT Latitude Longitude Course Direction KTS MPH feet Rate Location/Type
Thu 09:31:00 PM 37.2071 126.9005 166° South  Level Estimated
Thu 09:32:00 PM 37.1193 126.9279 166° South  Level Estimated
Thu 09:33:00 PM 37.0315 126.9551 166° South  Level Estimated
Thu 09:34:00 PM 36.9436 126.9823 166° South  Level Estimated
Thu 09:35:00 PM 36.8558 127.0095 166° South  Level Estimated
Thu 09:36:00 PM 36.7679 127.0365 166° South  Level Estimated
Thu 09:37:00 PM 36.6801 127.0635 166° South  Level Estimated
Thu 09:38:00 PM 36.5923 127.0905 166° South  Level Estimated
Thu 09:39:00 PM 36.5044 127.1174 166° South  Level Estimated
Thu 09:40:00 PM 36.4165 127.1442 166° South  Level Estimated
Thu 09:41:00 PM 36.3287 127.1710 166° South  Level Estimated
Thu 09:42:00 PM 36.2408 127.1977 166° South  Level Estimated
Thu 09:43:00 PM 36.1529 127.2243 166° South  Level Estimated
Thu 09:44:00 PM 36.0650 127.2509 166° South  Level Estimated
Thu 09:45:00 PM 35.9771 127.2775 166° South  Level Estimated
Thu 09:46:00 PM 35.8892 127.3039 166° South  Level Estimated
Thu 09:47:00 PM 35.8013 127.3303 166° South  Level Estimated
Thu 09:48:00 PM 35.7134 127.3567 166° South  Level Estimated
Thu 09:49:00 PM 35.6255 127.3830 166° South  Level Estimated
Thu 09:50:00 PM 35.5375 127.4092 166° South  Level Estimated
Thu 09:51:00 PM 35.4496 127.4354 166° South  Level Estimated
Thu 09:52:00 PM 35.3617 127.4615 166° South  Level Estimated
Thu 09:53:00 PM 35.2737 127.4876 166° South  Level Estimated
Thu 09:54:00 PM 35.1858 127.5136 166° South  Level Estimated
Thu 09:55:00 PM 35.0978 127.5395 166° South  Level Estimated
Thu 09:56:00 PM 35.0099 127.5654 166° South  Level Estimated
Thu 09:57:00 PM 34.9219 127.5913 166° South  Level Estimated
Thu 09:58:00 PM 34.8398 127.6153 166° South  Level Estimated
Thu 09:59:00 PM 34.8398 127.6153 180° South  Level Estimated
Thu 10:00:00 PM 34.8398 127.6153 180° South  Level Estimated
Thu 10:01:00 PM 34.8398 127.6153 180° South  Level Estimated
Thu 10:02:00 PM 34.8398 127.6153 180° South  Level Estimated
Thu 10:03:00 PM 34.8398 127.6153 180° South  Level Estimated
Thu 10:04:00 PM 34.8398 127.6153 180° South  Level Estimated
Thu 10:05:00 PM 34.8398 127.6153 180° South  Level Estimated
Thu 10:06:00 PM 34.8398 127.6153 180° South  Level Estimated
Thu 10:07:00 PM 34.8398 127.6153 180° South  Level Estimated
Thu 10:08:00 PM 34.8398 127.6153 180° South  Level Estimated
Thu 10:09:00 PM 34.8398 127.6153 180° South  Level Estimated
Thu 10:10:00 PM 34.8398 127.6153 180° South  Level Estimated
Thu 10:11:00 PM 34.8398 127.6153 180° South  Level Estimated
Thu 10:12:00 PM 34.8398 127.6153 180° South  Level Estimated
Thu 10:13:00 PM 34.8398 127.6153 180° South  Level Estimated
Thu 10:14:00 PM 34.8398 127.6153 180° South  Level Estimated

Login

Don't have an account? Register now (free) for customized features, flight alerts, and more!